Time;durP1;ratioP1;P1;durP2;ratioP2;P2;SDS_P1;SDS_P2;PMS_P1;PMS_P2;Temp;Humidity;BMP_temperature;BMP_pressure;BME280_temperature;BME280_humidity;BME280_pressure;Samples;Min_cycle;Max_cycle;Signal;HPM_P1;HPM_P2
2022/05/16 00:00:10;;;;;;;6.18;4.22;;;13.50;99.90;;;;;;5051311;28;20020;-78
2022/05/16 00:02:35;;;;;;;8.88;4.35;;;13.50;99.90;;;;;;5052783;28;20163;-78
2022/05/16 00:05:01;;;;;;;7.95;4.50;;;13.50;99.90;;;;;;5052141;28;20108;-78
2022/05/16 00:07:27;;;;;;;6.32;4.22;;;13.40;99.90;;;;;;5052175;28;20390;-77
2022/05/16 00:09:52;;;;;;;6.57;4.47;;;13.40;99.90;;;;;;5052341;28;20199;-77
2022/05/16 00:12:18;;;;;;;6.35;4.43;;;13.40;99.90;;;;;;5052205;28;20056;-78
2022/05/16 00:14:45;;;;;;;7.18;4.68;;;13.30;99.90;;;;;;5034433;28;20071;-78
2022/05/16 00:17:11;;;;;;;8.50;4.65;;;13.30;99.90;;;;;;5052215;28;20033;-78
2022/05/16 00:19:37;;;;;;;7.95;5.28;;;13.30;99.90;;;;;;5034526;28;20738;-78
2022/05/16 00:22:03;;;;;;;8.02;4.70;;;13.20;99.90;;;;;;5052247;28;20112;-78
2022/05/16 00:24:29;;;;;;;7.57;4.43;;;13.20;99.90;;;;;;5050773;28;20025;-78
2022/05/16 00:27:01;;;;;;;6.15;4.60;;;13.20;99.90;;;;;;5050568;28;20040;-78
2022/05/16 00:29:27;;;;;;;9.90;4.55;;;13.20;99.90;;;;;;5056008;28;20496;-78
2022/05/16 00:31:54;;;;;;;6.57;4.53;;;13.20;99.90;;;;;;5056259;28;20566;-78
2022/05/16 00:34:20;;;;;;;9.38;4.70;;;13.20;99.90;;;;;;5056614;28;20024;-78
2022/05/16 00:36:49;;;;;;;8.77;4.93;;;13.20;99.90;;;;;;5074632;28;20029;-78
2022/05/16 00:39:16;;;;;;;7.35;4.45;;;13.20;99.90;;;;;;5074090;28;20494;-78
2022/05/16 00:41:43;;;;;;;8.18;4.30;;;13.20;99.90;;;;;;5075659;28;20427;-78
2022/05/16 00:44:09;;;;;;;8.10;4.70;;;13.20;99.90;;;;;;5075386;28;20055;-78
2022/05/16 00:46:35;;;;;;;6.55;4.50;;;13.10;99.90;;;;;;5075258;28;20429;-78
2022/05/16 00:49:05;;;;;;;7.85;4.53;;;13.10;99.90;;;;;;5075009;28;20227;-78
2022/05/16 00:51:54;;;;;;;7.65;4.55;;;13.10;99.90;;;;;;5075247;28;20131;-78
2022/05/16 00:54:28;;;;;;;8.10;4.53;;;13.10;99.90;;;;;;5071667;28;20039;-78
2022/05/16 00:57:03;;;;;;;7.43;4.47;;;13.10;99.90;;;;;;5055739;28;20062;-78
2022/05/16 00:59:45;;;;;;;9.15;4.97;;;13.00;99.90;;;;;;5055849;28;20087;-78
2022/05/16 01:04:56;;;;;;;;;;;13.00;99.90;;;;;;5076279;28;20022;-78
2022/05/16 01:07:29;;;;;;;5.78;4.57;;;12.90;99.90;;;;;;5057747;28;19908;-78
2022/05/16 01:09:56;;;;;;;7.70;4.85;;;12.90;99.90;;;;;;5075797;28;20048;-78
2022/05/16 01:12:31;;;;;;;8.88;4.80;;;12.90;99.90;;;;;;5075742;28;20074;-78
2022/05/16 01:14:58;;;;;;;9.38;4.65;;;12.90;99.90;;;;;;5074014;28;20542;-78
2022/05/16 01:17:24;;;;;;;7.35;4.35;;;12.80;99.90;;;;;;5075254;28;20050;-78
2022/05/16 01:19:50;;;;;;;8.00;4.68;;;12.80;99.90;;;;;;5075358;28;20025;-78
2022/05/16 01:22:26;;;;;;;8.80;4.18;;;12.80;99.90;;;;;;5075617;28;20060;-78
2022/05/16 01:24:53;;;;;;;5.88;4.72;;;12.80;99.90;;;;;;5075170;28;20028;-78
2022/05/16 01:27:19;;;;;;;6.75;4.47;;;12.80;99.90;;;;;;5075214;28;20369;-78
2022/05/16 01:29:45;;;;;;;8.40;4.95;;;12.70;99.90;;;;;;5075022;28;20029;-78
2022/05/16 01:32:11;;;;;;;7.47;4.50;;;12.70;99.90;;;;;;5074972;28;20112;-78
2022/05/16 01:34:38;;;;;;;8.13;5.00;;;12.70;99.90;;;;;;5074834;28;20027;-78
2022/05/16 01:37:04;;;;;;;7.60;4.35;;;12.70;99.90;;;;;;5074857;28;20069;-78
2022/05/16 01:39:29;;;;;;;7.53;4.10;;;12.70;99.90;;;;;;5073525;28;20028;-78
2022/05/16 01:41:55;;;;;;;5.72;4.45;;;12.70;99.90;;;;;;5074393;28;20385;-78
2022/05/16 01:44:20;;;;;;;7.07;4.20;;;12.70;99.90;;;;;;5074777;28;20032;-78
2022/05/16 01:46:46;;;;;;;6.65;4.68;;;12.70;99.90;;;;;;5074780;28;20025;-78
2022/05/16 01:49:12;;;;;;;6.45;4.05;;;12.70;99.90;;;;;;5074599;28;20031;-78
2022/05/16 01:51:38;;;;;;;7.88;4.68;;;12.70;99.90;;;;;;5074346;28;20489;-78
2022/05/16 01:54:05;;;;;;;7.25;4.20;;;12.60;99.90;;;;;;5072234;28;20024;-78
2022/05/16 01:56:35;;;;;;;7.10;4.32;;;12.60;99.90;;;;;;5040956;28;20025;-78
2022/05/16 01:59:03;;;;;;;5.93;4.50;;;12.70;99.90;;;;;;5065116;28;20027;-78
2022/05/16 02:01:36;;;;;;;6.97;5.25;;;12.70;99.90;;;;;;5074614;28;20052;-78
2022/05/16 02:04:01;;;;;;;7.00;4.68;;;12.60;99.90;;;;;;5074787;28;20476;-78
2022/05/16 02:06:27;;;;;;;7.00;4.47;;;12.60;99.90;;;;;;5074855;28;20025;-78
2022/05/16 02:08:52;;;;;;;7.00;4.35;;;12.60;99.90;;;;;;5056792;28;20060;-78
2022/05/16 02:11:18;;;;;;;13.10;5.05;;;12.60;99.90;;;;;;5074901;28;20029;-78
2022/05/16 02:13:46;;;;;;;8.48;4.68;;;12.60;99.90;;;;;;5056348;28;20025;-78
2022/05/16 02:16:12;;;;;;;6.78;4.30;;;12.60;99.90;;;;;;5074355;28;20036;-78
2022/05/16 02:18:38;;;;;;;6.70;4.28;;;12.50;99.90;;;;;;5056153;28;20059;-78
2022/05/16 02:26:33;;;;;;;6.63;4.93;;;12.50;99.90;;;;;;5074158;28;20051;-78
2022/05/16 02:28:58;;;;;;;7.35;5.60;;;12.50;99.90;;;;;;5074122;28;20032;-78
2022/05/16 02:31:24;;;;;;;8.65;4.78;;;12.50;99.90;;;;;;5074032;28;20020;-78
2022/05/16 02:33:50;;;;;;;10.50;4.50;;;12.50;99.90;;;;;;5073788;28;20044;-78
2022/05/16 02:36:16;;;;;;;8.00;4.57;;;12.60;99.90;;;;;;5073830;28;20024;-78
2022/05/16 02:38:42;;;;;;;7.93;4.97;;;12.60;99.90;;;;;;5073764;28;20060;-78
2022/05/16 02:41:08;;;;;;;5.80;4.45;;;12.60;99.90;;;;;;5073626;28;20040;-78
2022/05/16 02:43:34;;;;;;;8.80;4.53;;;12.60;99.90;;;;;;5055985;28;20021;-78
2022/05/16 02:45:59;;;;;;;6.25;4.55;;;12.60;99.90;;;;;;5073682;28;20346;-78
2022/05/16 02:48:25;;;;;;;11.18;5.20;;;12.60;99.90;;;;;;5073618;28;20059;-78
2022/05/16 02:50:51;;;;;;;7.75;4.82;;;12.60;99.90;;;;;;5073132;28;20049;-78
2022/05/16 02:53:16;;;;;;;7.45;4.38;;;12.70;99.90;;;;;;5073396;28;20034;-78
2022/05/16 02:55:42;;;;;;;8.18;4.75;;;12.60;99.90;;;;;;5069497;28;20028;-78
2022/05/16 02:58:09;;;;;;;10.43;4.55;;;12.70;99.90;;;;;;5055404;28;20043;-78
2022/05/16 03:00:35;;;;;;;10.10;4.80;;;12.70;99.90;;;;;;5073345;28;20025;-78
2022/05/16 03:03:03;;;;;;;5.78;4.38;;;12.70;99.90;;;;;;5073377;28;20016;-78
2022/05/16 03:05:29;;;;;;;8.52;4.43;;;12.70;99.90;;;;;;5073193;28;20025;-78
2022/05/16 03:07:55;;;;;;;5.40;4.13;;;12.70;99.90;;;;;;5072980;28;20028;-78
2022/05/16 03:10:22;;;;;;;10.55;4.30;;;12.70;99.90;;;;;;5073009;28;20021;-78
2022/05/16 03:12:51;;;;;;;6.80;4.50;;;12.70;99.90;;;;;;5062661;28;20093;-78
2022/05/16 03:15:17;;;;;;;6.22;3.75;;;12.80;99.90;;;;;;5072774;28;20557;-78
2022/05/16 03:17:43;;;;;;;9.35;4.50;;;12.80;99.90;;;;;;5072787;28;20107;-79
2022/05/16 03:20:12;;;;;;;5.97;4.10;;;12.80;99.90;;;;;;5072808;28;20063;-76
2022/05/16 03:22:37;;;;;;;5.40;4.00;;;12.80;99.90;;;;;;5055024;28;20048;-76
2022/05/16 03:25:03;;;;;;;11.07;4.15;;;12.90;99.90;;;;;;5072655;28;20063;-77
2022/05/16 03:27:29;;;;;;;6.90;4.45;;;12.90;99.90;;;;;;5072860;28;20086;-76
2022/05/16 03:29:55;;;;;;;7.22;4.18;;;12.90;99.90;;;;;;5054741;28;20029;-76
2022/05/16 03:32:21;;;;;;;5.55;4.32;;;13.00;99.90;;;;;;5072739;28;20027;-76
2022/05/16 03:34:53;;;;;;;8.25;4.40;;;12.90;99.90;;;;;;5072420;28;20028;-77
2022/05/16 03:37:19;;;;;;;9.13;4.45;;;13.00;99.90;;;;;;5072562;28;20657;-76
2022/05/16 03:42:32;;;;;;;7.70;4.32;;;13.00;99.90;;;;;;5072730;28;20477;-76
2022/05/16 03:44:58;;;;;;;11.00;4.57;;;13.00;99.90;;;;;;5072282;28;20016;-76
2022/05/16 03:47:23;;;;;;;10.15;4.72;;;13.00;99.90;;;;;;5072284;28;20042;-76
2022/05/16 03:49:49;;;;;;;8.38;4.25;;;13.00;99.90;;;;;;5072277;28;20036;-78
2022/05/16 03:52:15;;;;;;;9.68;4.60;;;13.00;99.90;;;;;;5072378;28;20052;-77
2022/05/16 03:54:41;;;;;;;8.65;4.65;;;13.00;99.90;;;;;;5066704;28;20028;-77
2022/05/16 03:57:07;;;;;;;7.10;4.40;;;12.90;99.90;;;;;;5052129;28;20409;-77
2022/05/16 03:59:33;;;;;;;6.95;4.60;;;13.00;99.90;;;;;;5064152;28;20044;-77
2022/05/16 04:01:58;;;;;;;5.47;4.03;;;13.00;99.90;;;;;;5071703;28;20021;-77
2022/05/16 04:04:26;;;;;;;6.38;4.38;;;13.00;99.90;;;;;;5072121;28;20488;-77
2022/05/16 04:06:51;;;;;;;7.57;4.13;;;13.10;99.90;;;;;;5072625;28;20059;-77
2022/05/16 04:09:17;;;;;;;7.13;4.15;;;13.00;99.90;;;;;;5072648;28;20052;-78
2022/05/16 04:11:42;;;;;;;6.18;3.92;;;13.10;99.90;;;;;;5072625;28;20035;-77
2022/05/16 04:14:08;;;;;;;11.27;4.75;;;13.10;99.90;;;;;;5065229;28;20056;-77
2022/05/16 04:16:33;;;;;;;7.53;4.53;;;13.10;99.90;;;;;;5066061;28;20025;-82
2022/05/16 04:18:59;;;;;;;7.40;4.47;;;13.20;99.90;;;;;;5063415;28;20027;-82
2022/05/16 04:21:25;;;;;;;8.30;4.45;;;13.20;99.90;;;;;;5054760;28;20032;-82
2022/05/16 04:23:51;;;;;;;10.48;4.85;;;13.20;99.90;;;;;;5063955;28;20078;-82
2022/05/16 04:26:16;;;;;;;8.68;4.38;;;13.20;99.90;;;;;;5061509;28;20013;-82
2022/05/16 04:28:42;;;;;;;7.78;4.10;;;13.30;99.90;;;;;;5061505;28;20413;-82
2022/05/16 04:31:07;;;;;;;8.75;4.20;;;13.30;99.90;;;;;;5059359;28;20043;-82
2022/05/16 04:33:35;;;;;;;8.00;4.13;;;13.30;99.90;;;;;;5059593;28;20025;-82
2022/05/16 04:36:01;;;;;;;10.57;4.82;;;13.30;99.90;;;;;;5062907;28;20078;-82
2022/05/16 04:38:26;;;;;;;13.52;4.60;;;13.40;99.90;;;;;;5064760;28;20032;-82
2022/05/16 04:43:36;;;;;;;8.68;4.82;;;13.50;99.90;;;;;;5057687;28;20163;-82
2022/05/16 04:46:06;;;;;;;12.35;4.50;;;13.50;99.90;;;;;;5058218;28;20108;-82
2022/05/16 04:48:32;;;;;;;7.60;4.90;;;13.60;99.90;;;;;;5059354;28;20021;-82
2022/05/16 04:50:58;;;;;;;5.95;4.40;;;13.60;99.90;;;;;;5065130;28;20048;-82
2022/05/16 04:53:24;;;;;;;7.53;4.45;;;13.70;99.90;;;;;;5062943;28;20056;-78
2022/05/16 04:55:50;;;;;;;7.95;4.43;;;13.80;99.90;;;;;;5063359;28;20307;-82
2022/05/16 04:58:16;;;;;;;8.82;4.55;;;13.90;99.90;;;;;;5059339;28;20036;-82
2022/05/16 05:00:41;;;;;;;12.10;4.68;;;14.00;99.90;;;;;;5062043;28;20029;-82
2022/05/16 05:03:07;;;;;;;7.93;4.30;;;14.10;99.90;;;;;;5059366;28;20056;-80
2022/05/16 05:05:35;;;;;;;9.77;5.15;;;14.20;99.90;;;;;;5056601;28;20470;-81
2022/05/16 05:08:00;;;;;;;7.95;4.38;;;14.30;99.90;;;;;;5061410;28;20052;-80
2022/05/16 05:16:07;;;;;;;7.43;4.45;;;14.70;99.90;;;;;;5075690;28;20054;-73
2022/05/16 05:18:33;;;;;;;11.85;4.20;;;14.70;99.90;;;;;;5075951;28;20425;-73
2022/05/16 05:20:59;;;;;;;8.32;4.30;;;14.80;99.90;;;;;;5057890;28;20024;-73
2022/05/16 05:23:25;;;;;;;6.75;4.10;;;14.90;99.90;;;;;;5075674;28;20465;-73
2022/05/16 05:25:51;;;;;;;8.60;4.43;;;14.90;99.90;;;;;;5075856;28;20021;-73
2022/05/16 05:28:16;;;;;;;11.30;4.50;;;15.00;99.90;;;;;;5075636;28;20058;-73
2022/05/16 05:30:42;;;;;;;5.50;3.63;;;15.10;99.90;;;;;;5075801;28;20025;-72
2022/05/16 05:33:08;;;;;;;6.78;4.10;;;15.10;99.90;;;;;;5075788;28;20025;-73
2022/05/16 05:35:33;;;;;;;10.88;4.35;;;15.20;99.90;;;;;;5058284;28;20025;-73
2022/05/16 05:37:59;;;;;;;7.55;4.55;;;15.30;99.90;;;;;;5075512;28;20036;-73
2022/05/16 05:40:25;;;;;;;7.70;3.72;;;15.50;99.90;;;;;;5070488;28;20049;-73
2022/05/16 05:42:50;;;;;;;13.52;4.93;;;15.60;99.90;;;;;;5068794;28;20046;-73
2022/05/16 05:45:17;;;;;;;5.80;4.03;;;15.70;99.90;;;;;;5075215;28;20102;-72
2022/05/16 05:47:44;;;;;;;8.80;4.60;;;15.70;99.90;;;;;;5075671;28;20139;-73
2022/05/16 05:50:10;;;;;;;8.90;4.80;;;15.80;99.90;;;;;;5066456;28;20530;-87
2022/05/16 05:52:36;;;;;;;8.95;4.30;;;15.90;99.90;;;;;;5076157;28;20041;-87
2022/05/16 05:55:02;;;;;;;8.60;4.70;;;15.90;99.90;;;;;;5045823;28;20039;-80
2022/05/16 05:57:28;;;;;;;10.38;4.78;;;16.00;99.90;;;;;;5054459;28;20025;-80
2022/05/16 05:59:56;;;;;;;11.38;4.55;;;16.10;99.90;;;;;;5048666;28;20369;-80
2022/05/16 06:02:23;;;;;;;7.07;4.20;;;16.20;99.90;;;;;;5074090;28;20505;-80
2022/05/16 06:04:48;;;;;;;10.63;4.97;;;16.30;99.90;;;;;;5074280;28;20458;-80
2022/05/16 06:07:24;;;;;;;10.60;4.20;;;16.40;99.90;;;;;;5073971;28;20032;-82
2022/05/16 06:09:52;;;;;;;8.20;4.63;;;16.60;99.90;;;;;;5055771;28;20469;-83
2022/05/16 06:12:19;;;;;;;8.40;4.28;;;16.80;99.90;;;;;;5075054;28;20028;-83
2022/05/16 06:14:45;;;;;;;7.93;4.47;;;17.10;99.90;;;;;;5056772;28;20025;-83
2022/05/16 06:17:13;;;;;;;9.40;4.63;;;17.30;99.90;;;;;;5071028;28;20123;-83
2022/05/16 06:19:38;;;;;;;9.02;4.43;;;17.50;99.90;;;;;;5071687;28;20032;-87
2022/05/16 06:22:05;;;;;;;7.22;4.25;;;17.60;99.90;;;;;;5074535;28;20028;-83
2022/05/16 06:27:15;;;;;;;13.73;4.40;;;18.00;99.90;;;;;;5070309;28;20531;-83
2022/05/16 06:29:40;;;;;;;8.40;4.32;;;18.20;99.90;;;;;;5070587;28;20107;-83
2022/05/16 06:32:06;;;;;;;8.00;4.20;;;18.40;99.90;;;;;;5070588;28;20039;-83
2022/05/16 06:34:32;;;;;;;7.32;4.18;;;18.60;99.90;;;;;;5071386;28;20036;-83
2022/05/16 06:36:57;;;;;;;5.47;3.85;;;18.80;99.90;;;;;;5069264;28;20028;-83
2022/05/16 06:39:23;;;;;;;6.55;4.25;;;19.00;99.90;;;;;;5070027;28;20036;-83
2022/05/16 06:41:51;;;;;;;6.05;4.15;;;19.10;99.90;;;;;;5052877;28;20081;-83
2022/05/16 06:44:19;;;;;;;8.00;3.80;;;19.30;99.90;;;;;;5067449;28;20987;-83
2022/05/16 06:46:45;;;;;;;6.43;4.65;;;19.40;99.90;;;;;;5051553;28;20115;-83
2022/05/16 06:49:11;;;;;;;7.65;4.30;;;19.50;99.90;;;;;;5072802;28;20079;-88
2022/05/16 06:51:37;;;;;;;8.93;4.57;;;19.60;99.90;;;;;;5056501;28;20082;-88
2022/05/16 06:54:03;;;;;;;8.27;4.50;;;19.60;99.90;;;;;;5054153;28;20040;-82
2022/05/16 06:56:31;;;;;;;11.95;5.20;;;19.70;99.90;;;;;;5068856;28;20040;-82
2022/05/16 06:58:57;;;;;;;8.13;4.38;;;19.70;99.90;;;;;;5067551;28;20082;-82
2022/05/16 07:01:23;;;;;;;9.70;4.13;;;19.80;99.90;;;;;;5051065;28;20408;-82
2022/05/16 07:03:48;;;;;;;8.63;4.38;;;19.90;99.90;;;;;;5051748;28;20082;-82
2022/05/16 07:06:14;;;;;;;10.35;3.83;;;20.00;99.90;;;;;;5069678;28;20728;-82
2022/05/16 07:08:41;;;;;;;6.18;3.05;;;20.10;99.90;;;;;;5050513;28;20040;-82
2022/05/16 07:11:15;;;;;;;6.20;3.55;;;20.30;99.90;;;;;;5068617;28;20773;-83
2022/05/16 07:13:41;;;;;;;5.40;3.45;;;20.30;99.90;;;;;;5051510;28;20046;-82
2022/05/16 07:16:16;;;;;;;8.80;3.70;;;20.30;99.90;;;;;;5071129;28;20453;-83
2022/05/16 07:18:42;;;;;;;8.68;3.33;;;20.50;99.90;;;;;;5069030;28;20038;-83
2022/05/16 07:21:08;;;;;;;9.30;3.53;;;20.60;99.90;;;;;;5069859;28;20029;-83
2022/05/16 07:23:42;;;;;;;6.50;3.40;;;20.70;99.90;;;;;;5070891;28;20017;-90
2022/05/16 07:29:04;;;;;;;6.13;3.05;;;20.90;99.90;;;;;;5071139;28;20040;-90
2022/05/16 07:31:33;;;;;;;5.05;3.17;;;21.00;99.90;;;;;;5053675;28;20032;-91
2022/05/16 07:34:16;;;;;;;4.97;3.00;;;21.20;99.90;;;;;;5071098;28;20035;-91
2022/05/16 07:36:45;;;;;;;7.40;2.65;;;21.30;99.90;;;;;;5052184;28;20062;-91
2022/05/16 07:39:13;;;;;;;7.75;2.90;;;21.40;99.90;;;;;;5052990;28;20039;-90
2022/05/16 07:44:24;;;;;;;4.88;3.42;;;21.60;99.90;;;;;;5064416;28;20355;-92
2022/05/16 07:47:07;;;;;;;6.47;3.00;;;21.80;99.90;;;;;;5052820;28;20032;-92
2022/05/16 07:49:35;;;;;;;3.90;2.65;;;21.80;99.90;;;;;;5071646;28;20031;-92
2022/05/16 07:52:04;;;;;;;4.22;2.92;;;21.90;99.90;;;;;;5073389;28;20051;-92
2022/05/16 07:54:34;;;;;;;6.13;2.30;;;22.10;99.90;;;;;;5056252;28;20029;-92
2022/05/16 07:57:04;;;;;;;5.55;2.05;;;22.30;99.90;;;;;;5073179;28;20033;-92
2022/05/16 07:59:30;;;;;;;7.13;2.67;;;22.40;99.90;;;;;;5072104;28;20044;-92
2022/05/16 08:02:05;;;;;;;4.60;2.40;;;22.50;99.90;;;;;;5055899;28;20028;-91
2022/05/16 08:04:33;;;;;;;6.20;2.50;;;22.50;99.90;;;;;;5056661;28;20024;-90
2022/05/16 08:06:59;;;;;;;6.22;1.98;;;22.50;99.90;;;;;;5074443;28;20418;-91
2022/05/16 08:12:11;;;;;;;4.03;2.17;;;22.20;99.90;;;;;;5074281;28;20055;-94
2022/05/16 08:14:38;;;;;;;6.68;2.25;;;22.10;99.90;;;;;;5072234;28;20028;-90
2022/05/16 08:17:04;;;;;;;4.18;1.98;;;22.10;99.90;;;;;;5054881;28;20020;-92
2022/05/16 08:19:33;;;;;;;2.75;1.95;;;22.00;99.90;;;;;;5073127;28;20024;-91
2022/05/16 08:21:59;;;;;;;3.20;1.70;;;21.90;99.90;;;;;;5055046;28;20768;-91
2022/05/16 08:24:25;;;;;;;3.50;1.90;;;21.90;99.90;;;;;;5055336;28;20032;-90
2022/05/16 08:26:50;;;;;;;3.10;1.88;;;21.80;99.90;;;;;;5054832;28;20024;-90
2022/05/16 08:29:16;;;;;;;3.60;1.85;;;21.80;99.90;;;;;;5055040;28;20473;-92
2022/05/16 08:31:42;;;;;;;5.00;2.15;;;21.80;99.90;;;;;;5073107;28;20024;-90
2022/05/16 08:34:07;;;;;;;3.53;2.17;;;21.60;99.90;;;;;;5055070;28;20381;-90
2022/05/16 08:42:08;;;;;;;3.70;2.00;;;21.30;99.90;;;;;;5073347;28;20035;-90
2022/05/16 08:44:41;;;;;;;4.68;2.17;;;21.20;99.90;;;;;;5055063;28;20187;-90
2022/05/16 08:47:33;;;;;;;3.25;1.98;;;21.10;99.90;;;;;;5055004;28;20052;-90
2022/05/16 08:50:07;;;;;;;8.65;2.67;;;21.10;99.90;;;;;;5057442;28;20040;-90
2022/05/16 08:52:41;;;;;;;8.52;2.50;;;20.90;99.90;;;;;;5076841;28;20103;-90
2022/05/16 08:55:32;;;;;;;3.80;2.20;;;20.90;99.90;;;;;;5075969;28;20021;-93
2022/05/16 08:58:10;;;;;;;4.85;2.10;;;20.80;99.90;;;;;;5057405;28;20029;-85
2022/05/16 09:00:48;;;;;;;3.78;2.33;;;20.70;99.90;;;;;;5074480;28;20028;-86
2022/05/16 09:03:18;;;;;;;4.57;2.13;;;20.60;99.90;;;;;;5075651;28;20035;-87
2022/05/16 09:05:51;;;;;;;3.05;2.08;;;20.50;99.90;;;;;;5076391;28;20016;-86
2022/05/16 09:08:35;;;;;;;3.20;2.20;;;20.40;99.90;;;;;;5074681;28;20017;-88
2022/05/16 09:11:14;;;;;;;5.20;2.33;;;20.30;99.90;;;;;;5055913;28;20024;-82
2022/05/16 09:13:54;;;;;;;4.80;2.00;;;20.20;99.90;;;;;;5056114;28;20423;-82
2022/05/16 09:16:28;;;;;;;3.03;2.00;;;20.10;99.90;;;;;;5066135;28;20029;-82
2022/05/16 09:19:02;;;;;;;3.55;2.15;;;20.00;99.90;;;;;;5056879;28;20025;-82
2022/05/16 09:21:43;;;;;;;2.92;2.00;;;19.90;99.90;;;;;;5075078;28;20044;-82
2022/05/16 09:24:23;;;;;;;3.92;2.33;;;19.90;99.90;;;;;;5075068;28;20388;-81
2022/05/16 09:27:10;;;;;;;4.15;2.10;;;19.80;99.90;;;;;;5073809;28;20032;-82
2022/05/16 09:29:51;;;;;;;4.07;2.70;;;19.80;99.90;;;;;;5070797;28;20128;-82
2022/05/16 09:32:28;;;;;;;4.18;2.13;;;19.80;99.90;;;;;;5070454;28;20056;-82
2022/05/16 09:34:54;;;;;;;4.25;2.30;;;19.80;99.90;;;;;;5071981;28;20028;-82
2022/05/16 09:37:20;;;;;;;4.47;2.30;;;19.90;99.90;;;;;;5056785;28;20529;-82
2022/05/16 09:39:54;;;;;;;5.80;2.30;;;19.90;99.90;;;;;;5072161;28;20082;-82
2022/05/16 09:42:34;;;;;;;3.55;1.90;;;19.90;99.90;;;;;;5054421;28;20025;-82
2022/05/16 09:45:17;;;;;;;3.38;2.10;;;19.80;99.90;;;;;;5054912;28;20040;-82
2022/05/16 09:47:43;;;;;;;5.97;2.15;;;19.80;99.90;;;;;;5055231;28;20028;-82
2022/05/16 09:50:20;;;;;;;5.22;2.00;;;19.80;99.90;;;;;;5055157;28;20017;-82
2022/05/16 09:53:09;;;;;;;3.80;2.20;;;19.80;99.90;;;;;;5064015;28;20024;-82
2022/05/16 09:55:44;;;;;;;3.67;1.70;;;19.90;99.90;;;;;;5057752;28;20040;-82
2022/05/16 09:58:14;;;;;;;3.47;1.92;;;20.10;99.90;;;;;;5071312;28;20091;-82
2022/05/16 10:00:55;;;;;;;3.35;1.90;;;20.10;99.90;;;;;;5054875;28;20381;-82
2022/05/16 10:03:31;;;;;;;2.95;1.60;;;20.30;99.90;;;;;;5075061;28;20029;-84
2022/05/16 10:06:04;;;;;;;4.07;1.60;;;20.30;99.90;;;;;;5074137;28;20374;-83
2022/05/16 10:08:44;;;;;;;3.63;1.95;;;20.30;99.90;;;;;;5056221;28;20028;-84
2022/05/16 10:11:22;;;;;;;2.97;1.75;;;20.30;99.90;;;;;;5074188;28;20655;-83
2022/05/16 10:13:57;;;;;;;3.60;1.70;;;20.30;99.90;;;;;;5074156;28;20024;-83
2022/05/16 10:19:26;;;;;;;5.00;2.20;;;20.10;99.90;;;;;;5062816;28;20123;-83
2022/05/16 10:22:04;;;;;;;3.35;2.08;;;20.00;99.90;;;;;;5073943;28;20176;-83
2022/05/16 10:24:44;;;;;;;2.20;1.65;;;20.00;99.90;;;;;;5036832;28;20025;-83
2022/05/16 10:27:12;;;;;;;2.75;1.70;;;19.90;99.90;;;;;;5055728;28;20101;-73
2022/05/16 10:29:41;;;;;;;2.90;1.70;;;19.70;99.90;;;;;;5072815;28;20050;-81
2022/05/16 10:35:10;;;;;;;2.45;1.75;;;19.30;99.90;;;;;;5066696;28;20497;-84
2022/05/16 10:37:42;;;;;;;4.55;1.95;;;19.20;99.90;;;;;;5055466;28;20361;-85
2022/05/16 10:40:28;;;;;;;3.20;1.90;;;19.00;99.90;;;;;;5073157;28;20139;-85
2022/05/16 10:43:03;;;;;;;3.50;1.95;;;18.90;99.90;;;;;;5064233;28;20075;-80
2022/05/16 10:45:31;;;;;;;3.92;1.80;;;18.80;99.90;;;;;;5072064;28;20028;-80
2022/05/16 10:48:24;;;;;;;3.25;1.90;;;18.80;99.90;;;;;;5058501;28;20036;-80
2022/05/16 10:51:12;;;;;;;3.58;1.52;;;18.80;99.90;;;;;;5069479;28;20568;-80
2022/05/16 10:54:02;;;;;;;3.88;1.77;;;18.80;99.90;;;;;;5048129;28;20043;-80
2022/05/16 10:56:48;;;;;;;2.97;2.10;;;18.90;99.90;;;;;;5050875;28;20021;-86
2022/05/16 10:59:25;;;;;;;3.15;2.15;;;19.00;99.90;;;;;;5068402;28;20448;-86
2022/05/16 11:02:03;;;;;;;3.70;2.00;;;19.00;99.90;;;;;;5061058;28;20326;-80
2022/05/16 11:04:51;;;;;;;3.65;2.20;;;19.10;99.90;;;;;;5073233;28;20032;-80
2022/05/16 11:07:36;;;;;;;5.45;2.40;;;19.10;99.90;;;;;;5073156;28;20366;-79
2022/05/16 11:10:06;;;;;;;;;;;19.10;99.90;;;;;;5071403;28;20112;-80
2022/05/16 11:12:54;;;;;;;4.03;2.20;;;19.20;99.90;;;;;;5071982;28;20003;-80
2022/05/16 11:15:31;;;;;;;13.15;3.20;;;19.40;99.90;;;;;;5069743;28;20036;-80
2022/05/16 11:18:19;;;;;;;4.95;2.33;;;19.60;99.90;;;;;;5072353;28;20120;-80
2022/05/16 11:21:08;;;;;;;3.47;2.22;;;19.70;99.90;;;;;;5045275;28;20024;-86
2022/05/16 11:23:53;;;;;;;3.72;2.20;;;20.00;99.90;;;;;;5060618;28;20036;-85
2022/05/16 11:26:47;;;;;;;3.72;2.45;;;20.20;99.90;;;;;;5063580;28;20024;-85
2022/05/16 11:29:23;;;;;;;3.58;2.00;;;20.30;99.90;;;;;;5066027;28;20032;-80
2022/05/16 11:32:00;;;;;;;6.38;2.22;;;20.60;99.90;;;;;;5057342;28;20028;-80
2022/05/16 11:34:50;;;;;;;3.30;2.15;;;20.80;99.90;;;;;;5063493;28;20032;-80
2022/05/16 11:37:35;;;;;;;4.18;2.50;;;21.00;99.90;;;;;;5069178;28;20036;-80
2022/05/16 11:40:05;;;;;;;5.18;2.03;;;21.30;99.90;;;;;;5063089;28;20074;-80
2022/05/16 11:42:49;;;;;;;3.13;1.77;;;21.70;99.90;;;;;;5051021;28;20359;-86
2022/05/16 11:45:27;;;;;;;4.70;1.98;;;22.10;99.90;;;;;;5050822;28;20647;-87
2022/05/16 11:48:39;;;;;;;6.75;2.83;;;22.40;99.90;;;;;;5070213;28;20024;-86
2022/05/16 11:51:27;;;;;;;3.75;2.20;;;22.70;99.90;;;;;;5028356;28;20055;-84
2022/05/16 11:53:58;;;;;;;3.38;1.75;;;22.90;99.90;;;;;;5071036;28;20048;-84
2022/05/16 12:02:49;;;;;;;3.35;2.13;;;23.30;99.90;;;;;;5072081;28;20032;-84
2022/05/16 12:05:23;;;;;;;4.78;2.03;;;23.60;99.90;;;;;;5060378;28;20044;-83
2022/05/16 12:07:59;;;;;;;3.83;1.90;;;23.80;99.90;;;;;;5057716;28;20134;-84
2022/05/16 12:10:27;;;;;;;3.17;2.00;;;23.90;99.90;;;;;;5035763;28;20380;-85
2022/05/16 12:13:17;;;;;;;5.22;2.03;;;24.10;99.90;;;;;;5072321;28;20341;-84
2022/05/16 12:15:44;;;;;;;3.92;1.60;;;24.50;99.90;;;;;;5042292;28;20032;-79
2022/05/16 12:18:33;;;;;;;5.38;1.60;;;25.10;99.90;;;;;;5071695;28;20025;-83
2022/05/16 12:20:59;;;;;;;4.15;1.77;;;25.50;99.90;;;;;;5061674;28;20024;-84
2022/05/16 12:23:49;;;;;;;2.97;1.50;;;26.00;99.90;;;;;;5053011;28;20476;-84
2022/05/16 12:26:26;;;;;;;4.03;1.98;;;26.20;99.90;;;;;;5068457;28;20586;-84
2022/05/16 12:29:20;;;;;;;3.15;1.75;;;26.50;99.90;;;;;;5059367;28;20029;-84
2022/05/16 12:31:45;;;;;;;2.92;1.67;;;26.70;99.90;;;;;;5041276;28;20028;-84
2022/05/16 12:34:12;;;;;;;11.60;2.40;;;26.90;99.90;;;;;;5053128;28;20109;-82
2022/05/16 12:36:39;;;;;;;4.68;1.95;;;27.20;99.90;;;;;;5071222;28;20024;-82
2022/05/16 12:39:27;;;;;;;6.88;2.20;;;27.40;99.90;;;;;;5071266;28;20034;-85
2022/05/16 12:42:07;;;;;;;2.40;1.77;;;27.50;99.90;;;;;;5071334;28;20074;-81
2022/05/16 12:44:41;;;;;;;4.63;1.73;;;27.40;99.90;;;;;;5071953;28;20519;-81
2022/05/16 12:47:07;;;;;;;;;;;27.70;99.90;;;;;;5053635;28;20032;-81
2022/05/16 12:50:04;;;;;;;3.90;1.52;;;27.80;99.90;;;;;;5071355;28;20367;-82
2022/05/16 12:52:36;;;;;;;7.60;2.15;;;27.50;99.90;;;;;;5043489;28;20041;-82
2022/05/16 12:55:17;;;;;;;2.88;1.50;;;27.60;99.90;;;;;;5064988;28;20025;-82
2022/05/16 12:57:53;;;;;;;2.80;1.50;;;27.70;99.90;;;;;;5066670;28;20024;-82
2022/05/16 13:00:26;;;;;;;6.70;1.63;;;27.60;99.90;;;;;;5062072;28;20039;-82
2022/05/16 13:03:22;;;;;;;4.50;1.92;;;27.90;98.90;;;;;;5070096;28;20020;-82
2022/05/16 13:06:28;;;;;;;5.15;1.67;;;28.20;95.90;;;;;;5049809;28;20032;-82
2022/05/16 13:09:14;;;;;;;4.65;1.58;;;28.10;97.20;;;;;;5027586;28;20840;-82
2022/05/16 13:11:57;;;;;;;5.70;1.60;;;27.90;95.80;;;;;;5071538;28;20412;-82
2022/05/16 13:14:41;;;;;;;3.35;1.40;;;27.70;96.80;;;;;;5070798;28;20047;-82
2022/05/16 13:17:14;;;;;;;3.60;1.55;;;27.90;96.30;;;;;;5064293;28;20043;-88
2022/05/16 13:19:44;;;;;;;5.72;1.70;;;28.00;94.50;;;;;;5071004;28;20032;-87
2022/05/16 13:22:15;;;;;;;4.20;1.58;;;27.70;94.60;;;;;;5053071;28;20020;-80
2022/05/16 13:24:41;;;;;;;5.70;2.03;;;27.70;94.70;;;;;;5052278;28;20023;-80
2022/05/16 13:30:05;;;;;;;4.35;1.83;;;27.90;95.10;;;;;;5062744;28;20023;-82
2022/05/16 13:32:34;;;;;;;2.22;1.33;;;28.00;95.20;;;;;;5070388;28;20028;-82
2022/05/16 13:35:02;;;;;;;3.70;2.03;;;28.00;93.80;;;;;;5054126;28;20036;-82
2022/05/16 13:37:43;;;;;;;4.13;2.03;;;27.90;94.60;;;;;;5056551;28;20036;-82
2022/05/16 13:40:19;;;;;;;6.13;1.80;;;27.80;95.40;;;;;;5074687;28;20029;-82
2022/05/16 13:42:45;;;;;;;7.68;2.28;;;27.60;94.70;;;;;;5062342;28;20082;-82
2022/05/16 13:45:11;;;;;;;5.32;1.92;;;27.30;95.50;;;;;;5073750;28;20054;-80
2022/05/16 13:47:43;;;;;;;4.95;1.73;;;27.10;95.40;;;;;;5073970;28;20133;-80
2022/05/16 13:50:26;;;;;;;3.22;1.70;;;26.70;95.50;;;;;;5044436;28;20028;-80
2022/05/16 13:52:52;;;;;;;3.30;2.17;;;26.50;95.30;;;;;;5066900;28;20020;-79
2022/05/16 13:55:26;;;;;;;5.35;1.90;;;26.20;96.40;;;;;;5073379;28;20103;-80